Terminal Aerodrome Forecast
Issued by NWS

Home | Current Version | Previous Version | Text Only | Print | Product List | Glossary On
Versions: 1 2 3 4 5 6 7 8 9 10 11 12 13 14 15
000
FTUS42 TJSJ 190500
TAFNCM
TAF
TNCM 190524Z 1906/2006 09013KT P6SM VCSH FEW019
     FM191430 11015KT P6SM SCT020 SCT050
     FM192230 09012KT P6SM FEW018 SCT050=

USA.gov is the U.S. government's official web portal to all federal, state and local government web resources and services.